sensor_id;sensor_type;location;lat;lon;timestamp;P1;durP1;ratioP1;P2;durP2;ratioP2
23555;SDS011;11956;53.184;8.578;2023-03-03T00:02:34;48.92;;;25.00;;
23555;SDS011;11956;53.184;8.578;2023-03-03T00:05:35;45.60;;;24.02;;
23555;SDS011;11956;53.184;8.578;2023-03-03T00:08:36;48.10;;;23.80;;
23555;SDS011;11956;53.184;8.578;2023-03-03T00:11:38;47.53;;;24.00;;
23555;SDS011;11956;53.184;8.578;2023-03-03T00:14:39;47.88;;;24.77;;
23555;SDS011;11956;53.184;8.578;2023-03-03T00:17:40;49.03;;;25.00;;
23555;SDS011;11956;53.184;8.578;2023-03-03T00:20:45;54.85;;;26.77;;
23555;SDS011;11956;53.184;8.578;2023-03-03T00:27:29;61.80;;;28.67;;
23555;SDS011;11956;53.184;8.578;2023-03-03T00:30:35;61.33;;;28.17;;
23555;SDS011;11956;53.184;8.578;2023-03-03T00:33:39;72.05;;;29.90;;
23555;SDS011;11956;53.184;8.578;2023-03-03T00:36:46;69.90;;;30.17;;
23555;SDS011;11956;53.184;8.578;2023-03-03T00:39:53;62.97;;;28.77;;
23555;SDS011;11956;53.184;8.578;2023-03-03T00:43:27;68.45;;;30.73;;
23555;SDS011;11956;53.184;8.578;2023-03-03T00:46:35;82.80;;;33.35;;
23555;SDS011;11956;53.184;8.578;2023-03-03T00:49:36;76.13;;;31.17;;
23555;SDS011;11956;53.184;8.578;2023-03-03T00:52:40;76.90;;;31.88;;
23555;SDS011;11956;53.184;8.578;2023-03-03T00:55:57;68.43;;;30.77;;
23555;SDS011;11956;53.184;8.578;2023-03-03T00:58:58;89.25;;;35.40;;
23555;SDS011;11956;53.184;8.578;2023-03-03T01:02:01;89.68;;;37.00;;
23555;SDS011;11956;53.184;8.578;2023-03-03T01:05:02;89.88;;;36.10;;
23555;SDS011;11956;53.184;8.578;2023-03-03T01:08:03;100.57;;;38.67;;
23555;SDS011;11956;53.184;8.578;2023-03-03T01:11:08;95.13;;;37.42;;
23555;SDS011;11956;53.184;8.578;2023-03-03T01:14:15;86.88;;;34.63;;
23555;SDS011;11956;53.184;8.578;2023-03-03T01:17:16;95.38;;;35.53;;
23555;SDS011;11956;53.184;8.578;2023-03-03T01:20:17;100.40;;;36.45;;
23555;SDS011;11956;53.184;8.578;2023-03-03T01:23:18;95.18;;;37.58;;
23555;SDS011;11956;53.184;8.578;2023-03-03T01:26:19;101.50;;;38.17;;
23555;SDS011;11956;53.184;8.578;2023-03-03T01:29:20;101.80;;;38.30;;
23555;SDS011;11956;53.184;8.578;2023-03-03T01:32:21;99.80;;;37.35;;
23555;SDS011;11956;53.184;8.578;2023-03-03T01:35:23;105.27;;;37.67;;
23555;SDS011;11956;53.184;8.578;2023-03-03T01:38:24;108.78;;;39.17;;
23555;SDS011;11956;53.184;8.578;2023-03-03T01:41:26;111.32;;;39.85;;
23555;SDS011;11956;53.184;8.578;2023-03-03T01:44:29;98.82;;;38.13;;
23555;SDS011;11956;53.184;8.578;2023-03-03T01:47:30;90.05;;;35.42;;
23555;SDS011;11956;53.184;8.578;2023-03-03T01:53:43;100.75;;;38.22;;
23555;SDS011;11956;53.184;8.578;2023-03-03T01:56:49;100.38;;;38.60;;
23555;SDS011;11956;53.184;8.578;2023-03-03T01:59:51;108.70;;;40.03;;
23555;SDS011;11956;53.184;8.578;2023-03-03T02:05:56;90.55;;;35.95;;
23555;SDS011;11956;53.184;8.578;2023-03-03T02:12:10;81.05;;;35.00;;
23555;SDS011;11956;53.184;8.578;2023-03-03T02:18:24;87.07;;;35.85;;
23555;SDS011;11956;53.184;8.578;2023-03-03T02:21:26;81.43;;;33.72;;
23555;SDS011;11956;53.184;8.578;2023-03-03T02:27:44;85.10;;;34.97;;
23555;SDS011;11956;53.184;8.578;2023-03-03T02:30:45;81.00;;;34.75;;
23555;SDS011;11956;53.184;8.578;2023-03-03T02:33:48;83.40;;;35.17;;
23555;SDS011;11956;53.184;8.578;2023-03-03T02:39:51;85.65;;;34.95;;
23555;SDS011;11956;53.184;8.578;2023-03-03T02:42:52;89.93;;;37.33;;
23555;SDS011;11956;53.184;8.578;2023-03-03T02:45:56;94.30;;;38.03;;
23555;SDS011;11956;53.184;8.578;2023-03-03T02:48:58;96.40;;;39.28;;
23555;SDS011;11956;53.184;8.578;2023-03-03T02:51:59;82.88;;;34.55;;
23555;SDS011;11956;53.184;8.578;2023-03-03T02:55:04;77.30;;;33.38;;
23555;SDS011;11956;53.184;8.578;2023-03-03T02:58:06;76.13;;;33.53;;
23555;SDS011;11956;53.184;8.578;2023-03-03T03:01:07;74.10;;;33.30;;
23555;SDS011;11956;53.184;8.578;2023-03-03T03:04:09;77.07;;;32.45;;
23555;SDS011;11956;53.184;8.578;2023-03-03T03:07:18;73.13;;;31.95;;
23555;SDS011;11956;53.184;8.578;2023-03-03T03:10:19;68.32;;;30.63;;
23555;SDS011;11956;53.184;8.578;2023-03-03T03:13:21;62.85;;;29.27;;
23555;SDS011;11956;53.184;8.578;2023-03-03T03:16:24;61.03;;;28.10;;
23555;SDS011;11956;53.184;8.578;2023-03-03T03:19:25;60.13;;;26.75;;
23555;SDS011;11956;53.184;8.578;2023-03-03T03:22:26;50.85;;;23.85;;
23555;SDS011;11956;53.184;8.578;2023-03-03T03:25:27;38.50;;;19.95;;
23555;SDS011;11956;53.184;8.578;2023-03-03T03:28:29;50.88;;;22.75;;
23555;SDS011;11956;53.184;8.578;2023-03-03T03:31:30;43.42;;;21.10;;
23555;SDS011;11956;53.184;8.578;2023-03-03T03:34:31;48.83;;;22.98;;
23555;SDS011;11956;53.184;8.578;2023-03-03T03:37:32;41.20;;;20.92;;
23555;SDS011;11956;53.184;8.578;2023-03-03T03:40:33;42.67;;;20.70;;
23555;SDS011;11956;53.184;8.578;2023-03-03T03:43:34;47.88;;;19.45;;
23555;SDS011;11956;53.184;8.578;2023-03-03T03:46:36;54.83;;;20.75;;
23555;SDS011;11956;53.184;8.578;2023-03-03T03:49:37;41.88;;;20.20;;
23555;SDS011;11956;53.184;8.578;2023-03-03T03:52:38;50.75;;;22.70;;
23555;SDS011;11956;53.184;8.578;2023-03-03T03:55:39;41.70;;;19.67;;
23555;SDS011;11956;53.184;8.578;2023-03-03T03:58:40;61.22;;;22.20;;
23555;SDS011;11956;53.184;8.578;2023-03-03T04:01:43;44.10;;;20.80;;
23555;SDS011;11956;53.184;8.578;2023-03-03T04:04:44;44.65;;;21.42;;
23555;SDS011;11956;53.184;8.578;2023-03-03T04:07:47;59.42;;;23.92;;
23555;SDS011;11956;53.184;8.578;2023-03-03T04:10:50;43.00;;;20.65;;
23555;SDS011;11956;53.184;8.578;2023-03-03T04:13:51;45.17;;;21.67;;
23555;SDS011;11956;53.184;8.578;2023-03-03T04:16:52;48.85;;;21.58;;
23555;SDS011;11956;53.184;8.578;2023-03-03T04:19:53;38.53;;;19.40;;
23555;SDS011;11956;53.184;8.578;2023-03-03T04:22:54;42.83;;;20.67;;
23555;SDS011;11956;53.184;8.578;2023-03-03T04:25:56;55.45;;;23.23;;
23555;SDS011;11956;53.184;8.578;2023-03-03T04:28:58;50.13;;;22.15;;
23555;SDS011;11956;53.184;8.578;2023-03-03T04:32:00;44.05;;;20.83;;
23555;SDS011;11956;53.184;8.578;2023-03-03T04:35:03;46.05;;;21.90;;
23555;SDS011;11956;53.184;8.578;2023-03-03T04:38:04;40.25;;;19.90;;
23555;SDS011;11956;53.184;8.578;2023-03-03T04:41:05;48.13;;;22.38;;
23555;SDS011;11956;53.184;8.578;2023-03-03T04:44:10;50.90;;;23.48;;
23555;SDS011;11956;53.184;8.578;2023-03-03T04:47:11;43.28;;;21.30;;
23555;SDS011;11956;53.184;8.578;2023-03-03T04:50:12;51.28;;;23.13;;
23555;SDS011;11956;53.184;8.578;2023-03-03T04:53:14;45.65;;;22.83;;
23555;SDS011;11956;53.184;8.578;2023-03-03T04:56:16;53.65;;;23.65;;
23555;SDS011;11956;53.184;8.578;2023-03-03T04:59:17;53.75;;;23.98;;
23555;SDS011;11956;53.184;8.578;2023-03-03T05:02:18;58.85;;;24.42;;
23555;SDS011;11956;53.184;8.578;2023-03-03T05:05:20;55.15;;;23.40;;
23555;SDS011;11956;53.184;8.578;2023-03-03T05:08:21;56.17;;;24.52;;
23555;SDS011;11956;53.184;8.578;2023-03-03T05:11:22;48.92;;;22.73;;
23555;SDS011;11956;53.184;8.578;2023-03-03T05:14:25;59.03;;;23.98;;
23555;SDS011;11956;53.184;8.578;2023-03-03T05:17:26;55.40;;;24.05;;
23555;SDS011;11956;53.184;8.578;2023-03-03T05:20:27;53.85;;;24.10;;
23555;SDS011;11956;53.184;8.578;2023-03-03T05:23:28;54.50;;;24.38;;
23555;SDS011;11956;53.184;8.578;2023-03-03T05:26:30;47.70;;;21.67;;
23555;SDS011;11956;53.184;8.578;2023-03-03T05:29:31;46.53;;;21.25;;
23555;SDS011;11956;53.184;8.578;2023-03-03T05:32:32;47.45;;;21.73;;
23555;SDS011;11956;53.184;8.578;2023-03-03T05:35:33;44.55;;;21.02;;
23555;SDS011;11956;53.184;8.578;2023-03-03T05:38:34;44.28;;;20.90;;
23555;SDS011;11956;53.184;8.578;2023-03-03T05:41:35;40.78;;;20.17;;
23555;SDS011;11956;53.184;8.578;2023-03-03T05:44:36;43.03;;;19.90;;
23555;SDS011;11956;53.184;8.578;2023-03-03T05:47:37;41.95;;;20.05;;
23555;SDS011;11956;53.184;8.578;2023-03-03T05:50:38;43.45;;;21.10;;
23555;SDS011;11956;53.184;8.578;2023-03-03T05:53:39;45.38;;;21.52;;
23555;SDS011;11956;53.184;8.578;2023-03-03T05:56:40;42.65;;;20.15;;
23555;SDS011;11956;53.184;8.578;2023-03-03T05:59:41;46.13;;;20.63;;
23555;SDS011;11956;53.184;8.578;2023-03-03T06:02:42;35.65;;;18.85;;
23555;SDS011;11956;53.184;8.578;2023-03-03T06:05:43;41.85;;;19.55;;
23555;SDS011;11956;53.184;8.578;2023-03-03T06:08:44;40.15;;;19.05;;
23555;SDS011;11956;53.184;8.578;2023-03-03T06:11:45;42.90;;;20.63;;
23555;SDS011;11956;53.184;8.578;2023-03-03T06:14:46;44.63;;;20.42;;
23555;SDS011;11956;53.184;8.578;2023-03-03T06:17:47;40.75;;;19.60;;
23555;SDS011;11956;53.184;8.578;2023-03-03T06:20:54;38.30;;;19.98;;
23555;SDS011;11956;53.184;8.578;2023-03-03T06:23:55;43.20;;;21.15;;
23555;SDS011;11956;53.184;8.578;2023-03-03T06:26:56;40.65;;;20.92;;
23555;SDS011;11956;53.184;8.578;2023-03-03T06:29:58;38.33;;;20.50;;
23555;SDS011;11956;53.184;8.578;2023-03-03T06:32:59;40.03;;;21.27;;
23555;SDS011;11956;53.184;8.578;2023-03-03T06:35:59;42.42;;;20.73;;
23555;SDS011;11956;53.184;8.578;2023-03-03T06:39:00;39.50;;;21.35;;
23555;SDS011;11956;53.184;8.578;2023-03-03T06:42:01;37.53;;;21.15;;
23555;SDS011;11956;53.184;8.578;2023-03-03T06:45:02;47.63;;;23.02;;
23555;SDS011;11956;53.184;8.578;2023-03-03T06:48:04;37.80;;;21.75;;
23555;SDS011;11956;53.184;8.578;2023-03-03T06:51:09;36.88;;;21.50;;
23555;SDS011;11956;53.184;8.578;2023-03-03T06:54:34;37.25;;;21.58;;
23555;SDS011;11956;53.184;8.578;2023-03-03T06:57:35;37.13;;;21.35;;
23555;SDS011;11956;53.184;8.578;2023-03-03T07:00:36;36.15;;;21.05;;
23555;SDS011;11956;53.184;8.578;2023-03-03T07:03:37;39.03;;;20.05;;
23555;SDS011;11956;53.184;8.578;2023-03-03T07:06:38;37.15;;;20.98;;
23555;SDS011;11956;53.184;8.578;2023-03-03T07:09:39;35.33;;;20.45;;
23555;SDS011;11956;53.184;8.578;2023-03-03T07:12:40;36.38;;;21.17;;
23555;SDS011;11956;53.184;8.578;2023-03-03T07:15:41;35.58;;;19.15;;
23555;SDS011;11956;53.184;8.578;2023-03-03T07:18:56;30.73;;;18.63;;
23555;SDS011;11956;53.184;8.578;2023-03-03T07:22:10;31.67;;;18.40;;
23555;SDS011;11956;53.184;8.578;2023-03-03T07:25:33;27.90;;;16.60;;
23555;SDS011;11956;53.184;8.578;2023-03-03T07:28:34;27.90;;;17.20;;
23555;SDS011;11956;53.184;8.578;2023-03-03T07:31:36;26.98;;;16.00;;
23555;SDS011;11956;53.184;8.578;2023-03-03T07:34:44;27.50;;;15.75;;
23555;SDS011;11956;53.184;8.578;2023-03-03T07:37:47;21.90;;;15.05;;
23555;SDS011;11956;53.184;8.578;2023-03-03T07:40:50;21.65;;;13.68;;
23555;SDS011;11956;53.184;8.578;2023-03-03T07:43:54;15.02;;;9.82;;
23555;SDS011;11956;53.184;8.578;2023-03-03T07:50:19;10.38;;;7.38;;
23555;SDS011;11956;53.184;8.578;2023-03-03T07:53:26;8.75;;;6.30;;
23555;SDS011;11956;53.184;8.578;2023-03-03T07:56:34;10.55;;;7.68;;
23555;SDS011;11956;53.184;8.578;2023-03-03T07:59:35;8.50;;;6.30;;
23555;SDS011;11956;53.184;8.578;2023-03-03T08:02:39;11.65;;;7.05;;
23555;SDS011;11956;53.184;8.578;2023-03-03T08:05:45;9.43;;;6.90;;
23555;SDS011;11956;53.184;8.578;2023-03-03T08:08:48;9.82;;;6.50;;
23555;SDS011;11956;53.184;8.578;2023-03-03T08:11:50;11.30;;;8.48;;
23555;SDS011;11956;53.184;8.578;2023-03-03T08:14:55;16.88;;;11.38;;
23555;SDS011;11956;53.184;8.578;2023-03-03T08:18:15;14.80;;;9.70;;
23555;SDS011;11956;53.184;8.578;2023-03-03T08:21:47;14.55;;;9.65;;
23555;SDS011;11956;53.184;8.578;2023-03-03T08:24:48;15.50;;;10.40;;
23555;SDS011;11956;53.184;8.578;2023-03-03T08:27:49;15.05;;;11.32;;
23555;SDS011;11956;53.184;8.578;2023-03-03T08:30:50;16.83;;;11.90;;
23555;SDS011;11956;53.184;8.578;2023-03-03T08:33:51;18.35;;;11.85;;
23555;SDS011;11956;53.184;8.578;2023-03-03T08:36:52;15.48;;;10.95;;
23555;SDS011;11956;53.184;8.578;2023-03-03T08:39:53;17.98;;;11.73;;
23555;SDS011;11956;53.184;8.578;2023-03-03T08:42:54;15.63;;;11.27;;
23555;SDS011;11956;53.184;8.578;2023-03-03T08:45:56;13.93;;;10.20;;
23555;SDS011;11956;53.184;8.578;2023-03-03T08:48:59;14.02;;;9.52;;
23555;SDS011;11956;53.184;8.578;2023-03-03T08:52:00;12.52;;;8.93;;
23555;SDS011;11956;53.184;8.578;2023-03-03T08:55:01;10.80;;;8.20;;
23555;SDS011;11956;53.184;8.578;2023-03-03T08:58:02;12.93;;;9.13;;
23555;SDS011;11956;53.184;8.578;2023-03-03T09:01:03;12.32;;;8.90;;
23555;SDS011;11956;53.184;8.578;2023-03-03T09:04:04;10.20;;;7.90;;
23555;SDS011;11956;53.184;8.578;2023-03-03T09:07:05;11.18;;;8.63;;
23555;SDS011;11956;53.184;8.578;2023-03-03T09:10:06;9.68;;;7.38;;
23555;SDS011;11956;53.184;8.578;2023-03-03T09:13:16;11.38;;;8.05;;
23555;SDS011;11956;53.184;8.578;2023-03-03T09:16:18;8.95;;;7.57;;
23555;SDS011;11956;53.184;8.578;2023-03-03T09:19:24;12.05;;;8.00;;
23555;SDS011;11956;53.184;8.578;2023-03-03T09:22:31;11.27;;;8.10;;
23555;SDS011;11956;53.184;8.578;2023-03-03T09:25:36;8.55;;;7.10;;
23555;SDS011;11956;53.184;8.578;2023-03-03T09:28:37;9.50;;;7.00;;
23555;SDS011;11956;53.184;8.578;2023-03-03T09:31:38;10.75;;;7.63;;
23555;SDS011;11956;53.184;8.578;2023-03-03T09:34:43;10.88;;;7.53;;
23555;SDS011;11956;53.184;8.578;2023-03-03T09:37:45;12.15;;;8.98;;
23555;SDS011;11956;53.184;8.578;2023-03-03T10:01:42;13.95;;;8.07;;
23555;SDS011;11956;53.184;8.578;2023-03-03T10:04:53;14.82;;;7.88;;
23555;SDS011;11956;53.184;8.578;2023-03-03T10:18:47;12.75;;;6.18;;
23555;SDS011;11956;53.184;8.578;2023-03-03T10:22:06;12.80;;;6.50;;
23555;SDS011;11956;53.184;8.578;2023-03-03T10:32:42;9.25;;;5.13;;
23555;SDS011;11956;53.184;8.578;2023-03-03T10:36:08;15.07;;;5.72;;
23555;SDS011;11956;53.184;8.578;2023-03-03T10:43:34;8.93;;;4.20;;
23555;SDS011;11956;53.184;8.578;2023-03-03T10:47:25;9.93;;;3.50;;
23555;SDS011;11956;53.184;8.578;2023-03-03T10:58:28;5.65;;;3.13;;
23555;SDS011;11956;53.184;8.578;2023-03-03T11:01:57;4.90;;;2.17;;
23555;SDS011;11956;53.184;8.578;2023-03-03T11:08:58;10.27;;;4.70;;
23555;SDS011;11956;53.184;8.578;2023-03-03T11:22:37;8.80;;;2.08;;
23555;SDS011;11956;53.184;8.578;2023-03-03T11:33:10;10.05;;;4.15;;
23555;SDS011;11956;53.184;8.578;2023-03-03T11:39:27;10.52;;;5.50;;
23555;SDS011;11956;53.184;8.578;2023-03-03T11:42:43;12.98;;;5.00;;
23555;SDS011;11956;53.184;8.578;2023-03-03T11:46:06;7.63;;;4.68;;
23555;SDS011;11956;53.184;8.578;2023-03-03T11:49:13;6.20;;;2.72;;
23555;SDS011;11956;53.184;8.578;2023-03-03T11:56:31;3.97;;;2.03;;
23555;SDS011;11956;53.184;8.578;2023-03-03T12:13:16;7.90;;;1.20;;
23555;SDS011;11956;53.184;8.578;2023-03-03T12:26:43;6.93;;;1.35;;
23555;SDS011;11956;53.184;8.578;2023-03-03T12:30:14;77.85;;;40.60;;
23555;SDS011;11956;53.184;8.578;2023-03-03T12:40:18;3.90;;;1.20;;
23555;SDS011;11956;53.184;8.578;2023-03-03T12:46:59;5.50;;;2.20;;
23555;SDS011;11956;53.184;8.578;2023-03-03T12:50:48;5.63;;;1.60;;
23555;SDS011;11956;53.184;8.578;2023-03-03T13:05:02;9.68;;;3.60;;
23555;SDS011;11956;53.184;8.578;2023-03-03T13:22:01;7.40;;;1.83;;
23555;SDS011;11956;53.184;8.578;2023-03-03T13:28:36;8.05;;;1.30;;
23555;SDS011;11956;53.184;8.578;2023-03-03T13:32:34;4.68;;;1.00;;
23555;SDS011;11956;53.184;8.578;2023-03-03T13:39:05;5.32;;;1.38;;
23555;SDS011;11956;53.184;8.578;2023-03-03T13:49:30;7.20;;;1.80;;
23555;SDS011;11956;53.184;8.578;2023-03-03T14:02:59;4.93;;;1.40;;
23555;SDS011;11956;53.184;8.578;2023-03-03T14:06:21;5.78;;;1.48;;
23555;SDS011;11956;53.184;8.578;2023-03-03T14:12:50;4.30;;;1.40;;
23555;SDS011;11956;53.184;8.578;2023-03-03T14:16:14;7.75;;;2.58;;
23555;SDS011;11956;53.184;8.578;2023-03-03T14:19:27;4.57;;;1.70;;
23555;SDS011;11956;53.184;8.578;2023-03-03T14:22:44;3.97;;;1.80;;
23555;SDS011;11956;53.184;8.578;2023-03-03T14:29:11;6.30;;;1.70;;
23555;SDS011;11956;53.184;8.578;2023-03-03T14:32:26;6.97;;;2.20;;
23555;SDS011;11956;53.184;8.578;2023-03-03T14:35:28;3.33;;;1.90;;
23555;SDS011;11956;53.184;8.578;2023-03-03T14:38:37;6.50;;;2.10;;
23555;SDS011;11956;53.184;8.578;2023-03-03T14:41:42;10.10;;;2.05;;
23555;SDS011;11956;53.184;8.578;2023-03-03T14:47:45;4.60;;;2.10;;
23555;SDS011;11956;53.184;8.578;2023-03-03T14:50:51;5.40;;;2.30;;
23555;SDS011;11956;53.184;8.578;2023-03-03T14:54:05;6.53;;;2.72;;
23555;SDS011;11956;53.184;8.578;2023-03-03T15:00:47;6.15;;;3.10;;
23555;SDS011;11956;53.184;8.578;2023-03-03T15:04:09;8.60;;;3.50;;
23555;SDS011;11956;53.184;8.578;2023-03-03T15:10:36;10.07;;;3.17;;
23555;SDS011;11956;53.184;8.578;2023-03-03T15:13:43;7.72;;;3.63;;
23555;SDS011;11956;53.184;8.578;2023-03-03T15:16:44;8.05;;;3.50;;
23555;SDS011;11956;53.184;8.578;2023-03-03T15:19:50;6.53;;;3.05;;
23555;SDS011;11956;53.184;8.578;2023-03-03T15:29:36;6.90;;;2.97;;
23555;SDS011;11956;53.184;8.578;2023-03-03T15:43:31;5.55;;;1.60;;
23555;SDS011;11956;53.184;8.578;2023-03-03T15:50:23;6.10;;;1.52;;
23555;SDS011;11956;53.184;8.578;2023-03-03T15:57:12;6.55;;;1.40;;
23555;SDS011;11956;53.184;8.578;2023-03-03T16:04:20;5.13;;;1.23;;
23555;SDS011;11956;53.184;8.578;2023-03-03T16:13:58;6.80;;;1.63;;
23555;SDS011;11956;53.184;8.578;2023-03-03T16:28:18;14.57;;;3.10;;
23555;SDS011;11956;53.184;8.578;2023-03-03T16:34:56;14.40;;;3.23;;
23555;SDS011;11956;53.184;8.578;2023-03-03T16:38:39;14.75;;;2.53;;
23555;SDS011;11956;53.184;8.578;2023-03-03T16:42:22;11.85;;;2.75;;
23555;SDS011;11956;53.184;8.578;2023-03-03T16:45:35;14.85;;;3.22;;
23555;SDS011;11956;53.184;8.578;2023-03-03T16:48:47;16.38;;;2.67;;
23555;SDS011;11956;53.184;8.578;2023-03-03T16:52:04;18.75;;;2.80;;
23555;SDS011;11956;53.184;8.578;2023-03-03T16:55:14;15.90;;;2.75;;
23555;SDS011;11956;53.184;8.578;2023-03-03T17:05:50;17.52;;;3.13;;
23555;SDS011;11956;53.184;8.578;2023-03-03T17:15:37;22.35;;;3.28;;
23555;SDS011;11956;53.184;8.578;2023-03-03T17:22:25;16.38;;;3.25;;
23555;SDS011;11956;53.184;8.578;2023-03-03T17:25:50;17.55;;;2.97;;
23555;SDS011;11956;53.184;8.578;2023-03-03T17:42:06;21.98;;;3.05;;
23555;SDS011;11956;53.184;8.578;2023-03-03T17:45:17;23.20;;;3.97;;
23555;SDS011;11956;53.184;8.578;2023-03-03T17:48:43;16.77;;;3.05;;
23555;SDS011;11956;53.184;8.578;2023-03-03T18:02:36;22.13;;;3.40;;
23555;SDS011;11956;53.184;8.578;2023-03-03T18:13:03;18.40;;;3.35;;
23555;SDS011;11956;53.184;8.578;2023-03-03T18:19:53;16.10;;;3.03;;
23555;SDS011;11956;53.184;8.578;2023-03-03T18:23:40;24.95;;;3.70;;
23555;SDS011;11956;53.184;8.578;2023-03-03T18:26:42;22.40;;;4.00;;
23555;SDS011;11956;53.184;8.578;2023-03-03T18:30:12;21.00;;;3.35;;
23555;SDS011;11956;53.184;8.578;2023-03-03T18:33:08;14.82;;;3.83;;
23555;SDS011;11956;53.184;8.578;2023-03-03T18:36:13;25.65;;;4.45;;
23555;SDS011;11956;53.184;8.578;2023-03-03T18:42:47;24.35;;;5.00;;
23555;SDS011;11956;53.184;8.578;2023-03-03T18:45:52;25.55;;;4.40;;
23555;SDS011;11956;53.184;8.578;2023-03-03T18:52:13;18.25;;;4.20;;
23555;SDS011;11956;53.184;8.578;2023-03-03T18:55:21;29.27;;;4.45;;
23555;SDS011;11956;53.184;8.578;2023-03-03T19:01:34;23.90;;;4.30;;
23555;SDS011;11956;53.184;8.578;2023-03-03T19:04:49;25.73;;;5.07;;
23555;SDS011;11956;53.184;8.578;2023-03-03T19:14:40;26.58;;;5.78;;
23555;SDS011;11956;53.184;8.578;2023-03-03T19:17:48;34.35;;;7.72;;
23555;SDS011;11956;53.184;8.578;2023-03-03T19:20:52;24.58;;;7.25;;
23555;SDS011;11956;53.184;8.578;2023-03-03T19:27:32;35.78;;;7.10;;
23555;SDS011;11956;53.184;8.578;2023-03-03T20:05:50;24.90;;;4.03;;
23555;SDS011;11956;53.184;8.578;2023-03-03T20:19:07;26.42;;;4.95;;
23555;SDS011;11956;53.184;8.578;2023-03-03T20:40:35;29.02;;;5.10;;
23555;SDS011;11956;53.184;8.578;2023-03-03T20:43:56;30.48;;;4.43;;
23555;SDS011;11956;53.184;8.578;2023-03-03T21:04:44;30.63;;;4.80;;
23555;SDS011;11956;53.184;8.578;2023-03-03T21:10:57;28.50;;;4.50;;
23555;SDS011;11956;53.184;8.578;2023-03-03T21:13:58;28.73;;;4.78;;
23555;SDS011;11956;53.184;8.578;2023-03-03T21:17:26;28.50;;;4.45;;
23555;SDS011;11956;53.184;8.578;2023-03-03T21:20:29;30.75;;;4.95;;
23555;SDS011;11956;53.184;8.578;2023-03-03T21:29:43;32.05;;;4.70;;
23555;SDS011;11956;53.184;8.578;2023-03-03T21:32:45;30.40;;;4.90;;
23555;SDS011;11956;53.184;8.578;2023-03-03T21:35:57;27.58;;;4.13;;
23555;SDS011;11956;53.184;8.578;2023-03-03T21:38:58;33.25;;;4.35;;
23555;SDS011;11956;53.184;8.578;2023-03-03T21:42:02;29.93;;;4.47;;
23555;SDS011;11956;53.184;8.578;2023-03-03T21:45:13;25.13;;;4.03;;
23555;SDS011;11956;53.184;8.578;2023-03-03T21:48:15;34.33;;;4.63;;
23555;SDS011;11956;53.184;8.578;2023-03-03T21:51:16;29.20;;;4.40;;
23555;SDS011;11956;53.184;8.578;2023-03-03T21:54:19;25.90;;;4.30;;
23555;SDS011;11956;53.184;8.578;2023-03-03T21:57:20;29.65;;;4.35;;
23555;SDS011;11956;53.184;8.578;2023-03-03T22:00:21;31.42;;;4.78;;
23555;SDS011;11956;53.184;8.578;2023-03-03T22:03:22;33.25;;;4.90;;
23555;SDS011;11956;53.184;8.578;2023-03-03T22:06:23;27.98;;;4.32;;
23555;SDS011;11956;53.184;8.578;2023-03-03T22:09:24;29.13;;;3.97;;
23555;SDS011;11956;53.184;8.578;2023-03-03T22:12:25;28.45;;;4.50;;
23555;SDS011;11956;53.184;8.578;2023-03-03T22:15:26;31.33;;;4.82;;
23555;SDS011;11956;53.184;8.578;2023-03-03T22:18:29;39.22;;;4.50;;
23555;SDS011;11956;53.184;8.578;2023-03-03T22:21:30;22.45;;;4.22;;
23555;SDS011;11956;53.184;8.578;2023-03-03T22:24:31;25.17;;;4.00;;
23555;SDS011;11956;53.184;8.578;2023-03-03T22:27:32;27.92;;;5.50;;
23555;SDS011;11956;53.184;8.578;2023-03-03T22:30:33;29.05;;;4.95;;
23555;SDS011;11956;53.184;8.578;2023-03-03T22:33:35;26.58;;;4.72;;
23555;SDS011;11956;53.184;8.578;2023-03-03T22:36:36;27.52;;;4.20;;
23555;SDS011;11956;53.184;8.578;2023-03-03T22:39:37;20.58;;;3.35;;
23555;SDS011;11956;53.184;8.578;2023-03-03T22:42:37;24.13;;;3.20;;
23555;SDS011;11956;53.184;8.578;2023-03-03T22:45:38;26.65;;;4.25;;
23555;SDS011;11956;53.184;8.578;2023-03-03T22:48:40;26.60;;;3.60;;
23555;SDS011;11956;53.184;8.578;2023-03-03T22:51:40;21.27;;;3.30;;
23555;SDS011;11956;53.184;8.578;2023-03-03T22:54:41;24.20;;;4.00;;
23555;SDS011;11956;53.184;8.578;2023-03-03T22:57:42;17.42;;;3.72;;
23555;SDS011;11956;53.184;8.578;2023-03-03T23:00:43;17.90;;;3.13;;
23555;SDS011;11956;53.184;8.578;2023-03-03T23:03:45;22.92;;;4.25;;
23555;SDS011;11956;53.184;8.578;2023-03-03T23:06:46;19.65;;;3.85;;
23555;SDS011;11956;53.184;8.578;2023-03-03T23:09:48;31.42;;;7.25;;
23555;SDS011;11956;53.184;8.578;2023-03-03T23:12:49;30.02;;;6.85;;
23555;SDS011;11956;53.184;8.578;2023-03-03T23:15:50;22.42;;;5.00;;
23555;SDS011;11956;53.184;8.578;2023-03-03T23:18:51;25.33;;;5.10;;
23555;SDS011;11956;53.184;8.578;2023-03-03T23:21:52;25.92;;;5.15;;
23555;SDS011;11956;53.184;8.578;2023-03-03T23:24:53;17.50;;;4.85;;
23555;SDS011;11956;53.184;8.578;2023-03-03T23:27:54;26.80;;;4.80;;
23555;SDS011;11956;53.184;8.578;2023-03-03T23:30:56;21.45;;;4.28;;
23555;SDS011;11956;53.184;8.578;2023-03-03T23:33:57;28.15;;;5.75;;
23555;SDS011;11956;53.184;8.578;2023-03-03T23:36:58;21.30;;;5.15;;
23555;SDS011;11956;53.184;8.578;2023-03-03T23:39:59;32.38;;;5.85;;
23555;SDS011;11956;53.184;8.578;2023-03-03T23:43:00;28.65;;;5.47;;
23555;SDS011;11956;53.184;8.578;2023-03-03T23:46:00;22.98;;;5.95;;
23555;SDS011;11956;53.184;8.578;2023-03-03T23:49:02;23.85;;;4.57;;
23555;SDS011;11956;53.184;8.578;2023-03-03T23:52:03;26.40;;;5.22;;
23555;SDS011;11956;53.184;8.578;2023-03-03T23:55:05;29.35;;;5.70;;
23555;SDS011;11956;53.184;8.578;2023-03-03T23:58:06;21.85;;;5.18;;
